createdAt,value
2018-09-18T00:00:15.212Z,90.20
2018-09-18T00:02:43.838Z,90.40
2018-09-18T00:05:11.394Z,90.20
2018-09-18T00:07:39.287Z,90.30
2018-09-18T00:10:07.442Z,90.30
2018-09-18T00:12:37.449Z,90.60
2018-09-18T00:15:07.063Z,90.70
2018-09-18T00:17:34.833Z,90.60
2018-09-18T00:20:02.347Z,90.50
2018-09-18T00:22:30.004Z,90.80
2018-09-18T00:24:57.709Z,90.60
2018-09-18T00:27:25.584Z,90.70
2018-09-18T00:29:53.258Z,90.50
2018-09-18T00:32:20.809Z,90.40
2018-09-18T00:34:49.736Z,90.50
2018-09-18T00:37:17.241Z,90.50
2018-09-18T00:39:44.923Z,90.60
2018-09-18T00:42:12.365Z,90.70
2018-09-18T00:44:39.867Z,90.70
2018-09-18T00:47:07.461Z,90.70
2018-09-18T00:49:35.035Z,90.60
2018-09-18T00:52:02.644Z,90.60
2018-09-18T00:54:30.074Z,90.50
2018-09-18T00:56:57.566Z,91.00
2018-09-18T00:59:25.125Z,91.40
2018-09-18T01:01:52.648Z,90.80
2018-09-18T01:04:20.322Z,90.90
2018-09-18T01:06:47.824Z,91.00
2018-09-18T01:09:15.318Z,90.90
2018-09-18T01:11:43.546Z,91.00
2018-09-18T01:14:11.135Z,91.20
2018-09-18T01:16:38.636Z,91.10
2018-09-18T01:19:06.126Z,91.20
2018-09-18T01:21:33.829Z,91.20
2018-09-18T01:24:01.370Z,91.10
2018-09-18T01:26:28.874Z,91.20
2018-09-18T01:28:56.319Z,91.50
2018-09-18T01:31:23.833Z,91.50
2018-09-18T01:33:51.386Z,91.70
2018-09-18T01:36:19.048Z,91.70
2018-09-18T01:38:46.593Z,91.70
2018-09-18T01:41:14.206Z,91.80
2018-09-18T01:43:41.718Z,91.90
2018-09-18T01:46:09.270Z,91.80
2018-09-18T01:48:36.912Z,92.10
2018-09-18T01:51:04.536Z,91.90
2018-09-18T01:53:32.656Z,91.90
2018-09-18T01:56:00.154Z,91.90
2018-09-18T01:58:27.660Z,91.80
2018-09-18T02:00:55.218Z,91.80
2018-09-18T02:03:22.715Z,91.90
2018-09-18T02:05:50.237Z,91.90
2018-09-18T02:08:17.784Z,92.20
2018-09-18T02:10:45.387Z,92.40
2018-09-18T02:13:12.973Z,92.40
2018-09-18T02:15:40.552Z,92.40
2018-09-18T02:18:08.086Z,92.30
2018-09-18T02:20:35.633Z,92.40
2018-09-18T02:23:03.373Z,92.20
2018-09-18T02:25:30.855Z,92.30
2018-09-18T02:27:58.412Z,92.50
2018-09-18T02:30:25.999Z,92.60
2018-09-18T02:32:53.487Z,92.70
2018-09-18T02:35:20.981Z,92.70
2018-09-18T02:37:48.570Z,92.60
2018-09-18T02:40:16.103Z,92.70
2018-09-18T02:42:43.677Z,92.60
2018-09-18T02:45:11.329Z,92.70
2018-09-18T02:47:38.869Z,92.80
2018-09-18T02:50:06.480Z,92.80
2018-09-18T02:52:34.050Z,92.90
2018-09-18T02:55:01.593Z,93.00
2018-09-18T02:57:29.157Z,93.00
2018-09-18T02:59:56.732Z,92.90
2018-09-18T03:02:24.238Z,93.10
2018-09-18T03:04:51.767Z,93.10
2018-09-18T03:07:22.435Z,93.20
2018-09-18T03:09:50.073Z,93.30
2018-09-18T03:12:17.661Z,93.40
2018-09-18T03:14:45.186Z,93.30
2018-09-18T03:17:12.704Z,93.50
2018-09-18T03:19:40.242Z,93.50
2018-09-18T03:22:07.780Z,93.90
2018-09-18T03:24:36.033Z,93.50
2018-09-18T03:27:03.533Z,93.50
2018-09-18T03:29:31.103Z,93.50
2018-09-18T03:31:59.456Z,93.40
2018-09-18T03:34:27.014Z,93.30
2018-09-18T03:36:54.480Z,93.50
2018-09-18T03:39:22.037Z,93.50
2018-09-18T03:41:49.597Z,93.30
2018-09-18T03:44:17.151Z,93.40
2018-09-18T03:46:45.524Z,93.80
2018-09-18T03:49:13.045Z,93.40
2018-09-18T03:51:40.557Z,93.50
2018-09-18T03:54:08.123Z,93.60
2018-09-18T03:56:35.673Z,93.30
2018-09-18T03:59:03.293Z,93.30
2018-09-18T04:01:30.780Z,93.30
2018-09-18T04:03:58.259Z,93.20
2018-09-18T04:06:25.811Z,93.20
2018-09-18T04:08:53.509Z,93.10
2018-09-18T04:11:21.090Z,93.20
2018-09-18T04:13:48.596Z,93.10
2018-09-18T04:16:16.181Z,93.10
2018-09-18T04:18:43.735Z,93.40
2018-09-18T04:21:11.265Z,93.40
2018-09-18T04:23:38.903Z,93.50
2018-09-18T04:26:06.426Z,93.40
2018-09-18T04:28:35.001Z,93.40
2018-09-18T04:31:02.643Z,93.30
2018-09-18T04:33:31.270Z,93.30
2018-09-18T04:35:58.759Z,93.50
2018-09-18T04:38:26.333Z,93.50
2018-09-18T04:40:53.901Z,93.50
2018-09-18T04:43:21.480Z,93.80
2018-09-18T04:45:49.239Z,93.70
2018-09-18T04:48:18.092Z,93.90
2018-09-18T04:50:46.884Z,93.90
2018-09-18T04:53:14.333Z,93.90
2018-09-18T04:55:41.837Z,93.90
2018-09-18T04:58:12.839Z,93.80
2018-09-18T05:00:41.361Z,93.70
2018-09-18T05:03:08.956Z,93.70
2018-09-18T05:05:39.659Z,93.80
2018-09-18T05:08:07.197Z,93.80
2018-09-18T05:10:35.654Z,93.80
2018-09-18T05:13:05.236Z,93.90
2018-09-18T05:15:33.767Z,93.70
2018-09-18T05:18:05.026Z,93.70
2018-09-18T05:20:32.544Z,93.80
2018-09-18T05:23:00.074Z,93.90
2018-09-18T05:25:27.696Z,93.90
2018-09-18T05:27:55.964Z,93.80
2018-09-18T05:30:23.638Z,93.70
2018-09-18T05:32:51.307Z,93.90
2018-09-18T05:35:19.040Z,93.90
2018-09-18T05:37:46.702Z,93.80
2018-09-18T05:40:14.392Z,93.70
2018-09-18T05:42:41.980Z,93.60
2018-09-18T05:45:09.677Z,93.40
2018-09-18T05:47:37.275Z,93.40
2018-09-18T05:50:05.968Z,93.20
2018-09-18T05:52:33.605Z,93.00
2018-09-18T05:55:01.285Z,92.70
2018-09-18T05:57:29.172Z,92.70
2018-09-18T05:59:56.644Z,92.50
2018-09-18T06:02:24.172Z,92.50
2018-09-18T06:04:51.644Z,92.20
2018-09-18T06:07:19.202Z,91.90
2018-09-18T06:09:46.840Z,91.90
2018-09-18T06:12:14.392Z,91.80
2018-09-18T06:14:41.942Z,91.70
2018-09-18T06:17:09.391Z,91.60
2018-09-18T06:19:36.936Z,91.40
2018-09-18T06:22:04.466Z,91.30
2018-09-18T06:24:32.041Z,91.00
2018-09-18T06:26:59.584Z,90.60
2018-09-18T06:29:27.109Z,90.30
2018-09-18T06:31:55.033Z,89.90
2018-09-18T06:34:22.496Z,89.10
2018-09-18T06:36:49.998Z,88.00
2018-09-18T06:39:17.575Z,87.70
2018-09-18T06:41:45.065Z,87.30
2018-09-18T06:44:12.638Z,86.40
2018-09-18T06:46:40.079Z,85.70
2018-09-18T06:49:07.616Z,84.50
2018-09-18T06:51:35.138Z,84.50
2018-09-18T06:54:02.620Z,83.70
2018-09-18T06:56:30.224Z,83.20
2018-09-18T06:58:57.698Z,83.20
2018-09-18T07:01:25.184Z,82.70
2018-09-18T07:03:52.752Z,81.40
2018-09-18T07:06:20.319Z,81.10
2018-09-18T07:08:47.915Z,81.10
2018-09-18T07:11:15.425Z,80.40
2018-09-18T07:13:42.975Z,79.50
2018-09-18T07:16:10.556Z,78.70
2018-09-18T07:18:38.120Z,78.00
2018-09-18T07:21:06.484Z,77.10
2018-09-18T07:23:34.775Z,76.50
2018-09-18T07:26:02.231Z,76.10
2018-09-18T07:28:30.127Z,75.20
2018-09-18T07:30:58.125Z,74.20
2018-09-18T07:33:25.561Z,73.50
2018-09-18T07:35:53.087Z,72.10
2018-09-18T07:38:20.643Z,71.50
2018-09-18T07:40:48.197Z,71.40
2018-09-18T07:43:15.675Z,71.20
2018-09-18T07:45:43.181Z,70.00
2018-09-18T07:48:10.758Z,69.20
2018-09-18T07:50:38.263Z,68.20
2018-09-18T07:53:05.952Z,68.10
2018-09-18T07:55:33.795Z,67.70
2018-09-18T07:58:01.299Z,65.90
2018-09-18T08:00:28.896Z,64.70
2018-09-18T08:02:56.459Z,64.10
2018-09-18T08:05:24.008Z,64.60
2018-09-18T08:07:51.549Z,62.80
2018-09-18T08:10:19.070Z,62.40
2018-09-18T08:12:49.042Z,61.60
2018-09-18T08:15:17.675Z,61.00
2018-09-18T08:17:45.114Z,61.00
2018-09-18T08:20:12.708Z,60.30
2018-09-18T08:22:40.178Z,60.00
2018-09-18T08:25:07.682Z,59.30
2018-09-18T08:27:35.160Z,58.90
2018-09-18T08:30:02.642Z,57.80
2018-09-18T08:32:30.192Z,58.30
2018-09-18T08:34:57.696Z,57.90
2018-09-18T08:37:25.186Z,57.80
2018-09-18T08:39:52.843Z,56.20
2018-09-18T08:42:20.270Z,57.00
2018-09-18T08:44:47.725Z,57.00
2018-09-18T08:47:15.182Z,56.30
2018-09-18T08:49:42.657Z,56.30
2018-09-18T08:52:10.359Z,56.10
2018-09-18T08:54:37.716Z,55.80
2018-09-18T08:57:05.561Z,55.20
2018-09-18T08:59:32.997Z,54.70
2018-09-18T09:02:00.473Z,54.30
2018-09-18T09:04:27.978Z,54.20
2018-09-18T09:06:57.119Z,54.10
2018-09-18T09:09:24.565Z,53.60
2018-09-18T09:11:52.119Z,53.70
2018-09-18T09:14:19.567Z,53.20
2018-09-18T09:16:47.007Z,53.20
2018-09-18T09:19:14.709Z,53.20
2018-09-18T09:21:42.134Z,53.00
2018-09-18T09:24:09.631Z,52.70
2018-09-18T09:26:37.048Z,52.60
2018-09-18T09:29:04.561Z,52.00
2018-09-18T09:31:32.322Z,51.40
2018-09-18T09:33:59.801Z,51.90
2018-09-18T09:36:27.249Z,50.50
2018-09-18T09:38:54.802Z,50.30
2018-09-18T09:41:22.158Z,50.10
2018-09-18T09:43:49.642Z,50.30
2018-09-18T09:46:17.079Z,50.10
2018-09-18T09:48:44.521Z,49.80
2018-09-18T09:51:12.007Z,49.60
2018-09-18T09:53:39.467Z,50.20
2018-09-18T09:56:07.045Z,49.50
2018-09-18T09:58:34.481Z,49.20
2018-09-18T10:01:07.431Z,49.10
2018-09-18T10:03:34.865Z,48.20
2018-09-18T10:06:02.313Z,48.50
2018-09-18T10:08:29.911Z,48.40
2018-09-18T10:10:57.501Z,48.20
2018-09-18T10:13:24.823Z,48.10
2018-09-18T10:15:52.283Z,48.90
2018-09-18T10:18:19.847Z,47.00
2018-09-18T10:20:47.446Z,47.10
2018-09-18T10:23:14.913Z,47.60
2018-09-18T10:25:42.389Z,46.30
2018-09-18T10:28:09.853Z,46.70
2018-09-18T10:30:37.327Z,46.60
2018-09-18T10:33:04.805Z,46.60
2018-09-18T10:35:32.356Z,47.00
2018-09-18T10:37:59.979Z,46.70
2018-09-18T10:40:27.525Z,46.30
2018-09-18T10:42:55.104Z,46.40
2018-09-18T10:45:22.620Z,46.20
2018-09-18T10:47:50.188Z,46.00
2018-09-18T10:50:17.634Z,45.60
2018-09-18T10:52:45.116Z,45.40
2018-09-18T10:55:13.573Z,45.60
2018-09-18T10:57:41.127Z,45.20
2018-09-18T11:00:09.785Z,44.60
2018-09-18T11:02:37.281Z,44.80
2018-09-18T11:05:05.050Z,44.90
2018-09-18T11:07:32.644Z,44.80
2018-09-18T11:10:00.243Z,44.40
2018-09-18T11:12:27.680Z,44.70
2018-09-18T11:14:55.224Z,44.40
2018-09-18T11:17:22.645Z,43.80
2018-09-18T11:19:50.103Z,43.10
2018-09-18T11:22:17.792Z,43.70
2018-09-18T11:24:45.276Z,43.40
2018-09-18T11:27:12.743Z,43.20
2018-09-18T11:29:40.140Z,43.30
2018-09-18T11:32:07.539Z,43.90
2018-09-18T11:34:35.555Z,43.10
2018-09-18T11:37:03.032Z,42.40
2018-09-18T11:39:31.410Z,42.80
2018-09-18T11:41:58.786Z,42.60
2018-09-18T11:44:26.158Z,42.60
2018-09-18T11:46:53.527Z,41.40
2018-09-18T11:49:21.036Z,42.20
2018-09-18T11:51:48.556Z,41.40
2018-09-18T11:54:16.046Z,41.30
2018-09-18T11:56:43.602Z,41.60
2018-09-18T11:59:11.180Z,41.30
2018-09-18T12:01:38.795Z,41.10
2018-09-18T12:04:06.271Z,40.90
2018-09-18T12:06:33.703Z,41.10
2018-09-18T12:09:01.304Z,39.90
2018-09-18T12:11:28.695Z,39.90
2018-09-18T12:13:56.160Z,40.00
2018-09-18T12:16:23.736Z,40.20
2018-09-18T12:18:51.200Z,40.10
2018-09-18T12:21:18.676Z,40.20
2018-09-18T12:23:46.115Z,39.50
2018-09-18T12:26:13.519Z,40.60
2018-09-18T12:28:41.087Z,38.70
2018-09-18T12:31:08.606Z,37.20
2018-09-18T12:33:36.091Z,34.70
2018-09-18T12:36:04.078Z,33.10
2018-09-18T12:38:32.458Z,31.20
2018-09-18T12:41:00.035Z,30.00
2018-09-18T12:43:27.513Z,28.60
2018-09-18T12:45:55.011Z,28.30
2018-09-18T12:48:22.494Z,27.70
2018-09-18T12:50:50.022Z,27.30
2018-09-18T12:53:17.487Z,26.80
2018-09-18T12:55:44.936Z,27.40
2018-09-18T12:58:13.767Z,27.20
2018-09-18T13:00:41.260Z,27.70
2018-09-18T13:03:08.836Z,27.30
2018-09-18T13:05:36.351Z,27.10
2018-09-18T13:08:03.880Z,27.00
2018-09-18T13:10:31.412Z,27.30
2018-09-18T13:12:58.909Z,27.30
2018-09-18T13:15:27.081Z,27.50
2018-09-18T13:17:54.656Z,27.30
2018-09-18T13:20:22.109Z,26.70
2018-09-18T13:22:49.587Z,26.30
2018-09-18T13:25:17.090Z,26.00
2018-09-18T13:27:44.583Z,26.20
2018-09-18T13:30:12.065Z,26.60
2018-09-18T13:32:39.561Z,27.90
2018-09-18T13:35:07.049Z,27.90
2018-09-18T13:37:34.898Z,28.00
2018-09-18T13:40:02.383Z,27.20
2018-09-18T13:42:29.926Z,27.40
2018-09-18T13:44:57.422Z,27.40
2018-09-18T13:47:24.869Z,27.20
2018-09-18T13:49:52.522Z,26.60
2018-09-18T13:52:20.056Z,26.40
2018-09-18T13:54:47.504Z,26.50
2018-09-18T13:57:14.971Z,26.70
2018-09-18T13:59:42.459Z,26.00
2018-09-18T14:02:10.033Z,26.70
2018-09-18T14:04:37.555Z,26.90
2018-09-18T14:07:05.193Z,27.00
2018-09-18T14:09:32.751Z,26.70
2018-09-18T14:12:00.205Z,26.40
2018-09-18T14:14:27.839Z,26.50
2018-09-18T14:16:55.296Z,26.10
2018-09-18T14:19:22.757Z,26.10
2018-09-18T14:21:50.284Z,25.70
2018-09-18T14:24:17.761Z,25.50
2018-09-18T14:26:45.276Z,25.60
2018-09-18T14:29:12.755Z,26.00
2018-09-18T14:31:40.262Z,25.70
2018-09-18T14:34:07.708Z,25.60
2018-09-18T14:36:35.224Z,26.20
2018-09-18T14:39:04.904Z,26.20
2018-09-18T14:41:33.350Z,25.90
2018-09-18T14:44:00.922Z,25.80
2018-09-18T14:46:28.380Z,25.90
2018-09-18T14:48:55.837Z,26.10
2018-09-18T14:51:23.438Z,26.20
2018-09-18T14:53:50.831Z,25.90
2018-09-18T14:56:18.351Z,26.50
2018-09-18T14:58:45.947Z,25.80
2018-09-18T15:01:13.481Z,26.00
2018-09-18T15:03:40.932Z,25.60
2018-09-18T15:06:08.393Z,25.40
2018-09-18T15:08:36.028Z,25.50
2018-09-18T15:11:03.594Z,25.90
2018-09-18T15:13:31.121Z,25.60
2018-09-18T15:15:58.568Z,25.80
2018-09-18T15:18:26.046Z,25.60
2018-09-18T15:20:53.659Z,25.90
2018-09-18T15:23:21.089Z,26.10
2018-09-18T15:25:48.587Z,26.10
2018-09-18T15:28:16.040Z,25.90
2018-09-18T15:30:43.461Z,25.50
2018-09-18T15:33:10.993Z,25.80
2018-09-18T15:35:38.447Z,25.90
2018-09-18T15:38:06.077Z,25.90
2018-09-18T15:40:33.612Z,26.20
2018-09-18T15:43:01.160Z,26.10
2018-09-18T15:45:28.632Z,26.30
2018-09-18T15:47:56.138Z,26.40
2018-09-18T15:50:23.622Z,26.70
2018-09-18T15:52:51.148Z,27.50
2018-09-18T15:55:18.662Z,26.90
2018-09-18T15:57:46.239Z,27.10
2018-09-18T16:00:13.720Z,27.60
2018-09-18T16:02:41.154Z,27.50
2018-09-18T16:05:08.643Z,27.60
2018-09-18T16:07:36.097Z,27.30
2018-09-18T16:10:03.720Z,27.70
2018-09-18T16:12:31.213Z,28.10
2018-09-18T16:14:58.722Z,27.60
2018-09-18T16:17:26.170Z,27.30
2018-09-18T16:19:53.639Z,27.60
2018-09-18T16:22:21.113Z,27.60
2018-09-18T16:24:50.701Z,28.00
2018-09-18T16:27:18.773Z,28.10
2018-09-18T16:29:46.268Z,28.00
2018-09-18T16:32:13.761Z,28.20
2018-09-18T16:34:41.242Z,28.30
2018-09-18T16:37:08.844Z,28.50
2018-09-18T16:39:36.381Z,28.90
2018-09-18T16:42:03.881Z,29.00
2018-09-18T16:44:31.349Z,29.10
2018-09-18T16:46:58.899Z,29.20
2018-09-18T16:49:26.344Z,29.30
2018-09-18T16:51:53.860Z,29.90
2018-09-18T16:54:21.345Z,30.10
2018-09-18T16:56:48.868Z,30.90
2018-09-18T16:59:16.374Z,31.90
2018-09-18T17:01:43.848Z,32.60
2018-09-18T17:04:11.335Z,33.40
2018-09-18T17:06:38.903Z,34.20
2018-09-18T17:09:07.785Z,34.80
2018-09-18T17:11:35.336Z,35.50
2018-09-18T17:14:03.384Z,36.10
2018-09-18T17:16:30.925Z,36.90
2018-09-18T17:18:58.367Z,38.60
2018-09-18T17:21:25.836Z,39.20
2018-09-18T17:23:54.072Z,39.30
2018-09-18T17:26:21.537Z,40.10
2018-09-18T17:28:49.137Z,41.00
2018-09-18T17:31:16.496Z,41.80
2018-09-18T17:33:43.974Z,41.70
2018-09-18T17:36:11.686Z,43.40
2018-09-18T17:38:40.841Z,45.20
2018-09-18T17:41:08.796Z,44.30
2018-09-18T17:43:36.380Z,46.10
2018-09-18T17:46:05.119Z,45.30
2018-09-18T17:48:33.495Z,45.40
2018-09-18T17:51:03.309Z,46.80
2018-09-18T17:53:31.110Z,47.50
2018-09-18T17:55:58.632Z,47.90
2018-09-18T17:58:26.076Z,48.20
2018-09-18T18:00:53.626Z,48.30
2018-09-18T18:03:21.127Z,49.60
2018-09-18T18:05:48.668Z,48.00
2018-09-18T18:08:16.247Z,49.10
2018-09-18T18:10:44.801Z,50.80
2018-09-18T18:13:12.368Z,51.20
2018-09-18T18:15:39.850Z,52.10
2018-09-18T18:18:07.271Z,51.90
2018-09-18T18:20:34.887Z,52.60
2018-09-18T18:23:02.240Z,53.60
2018-09-18T18:25:29.741Z,53.70
2018-09-18T18:27:57.220Z,54.00
2018-09-18T18:30:24.673Z,54.60
2018-09-18T18:32:52.160Z,54.80
2018-09-18T18:35:19.635Z,55.00
2018-09-18T18:37:47.102Z,55.60
2018-09-18T18:40:14.631Z,55.80
2018-09-18T18:42:42.141Z,55.30
2018-09-18T18:45:09.750Z,55.50
2018-09-18T18:47:37.302Z,55.50
2018-09-18T18:50:04.719Z,56.80
2018-09-18T18:52:32.261Z,56.20
2018-09-18T18:54:59.741Z,56.60
2018-09-18T18:57:27.224Z,57.40
2018-09-18T18:59:54.691Z,57.80
2018-09-18T19:02:22.350Z,59.00
2018-09-18T19:04:49.866Z,58.20
2018-09-18T19:07:17.391Z,58.50
2018-09-18T19:09:44.983Z,58.90
2018-09-18T19:12:12.522Z,59.40
2018-09-18T19:14:40.007Z,59.40
2018-09-18T19:17:07.597Z,59.50
2018-09-18T19:19:35.109Z,60.30
2018-09-18T19:22:02.605Z,59.50
2018-09-18T19:24:30.107Z,60.80
2018-09-18T19:26:57.580Z,60.30
2018-09-18T19:29:25.186Z,61.00
2018-09-18T19:31:52.747Z,59.90
2018-09-18T19:34:20.315Z,58.00
2018-09-18T19:36:47.822Z,57.80
2018-09-18T19:39:15.431Z,56.90
2018-09-18T19:41:42.897Z,56.20
2018-09-18T19:44:10.330Z,55.60
2018-09-18T19:46:37.812Z,55.30
2018-09-18T19:49:05.350Z,55.20
2018-09-18T19:51:32.861Z,54.80
2018-09-18T19:54:00.551Z,55.10
2018-09-18T19:56:28.053Z,55.00
2018-09-18T19:58:55.706Z,55.20
2018-09-18T20:01:23.788Z,54.90
2018-09-18T20:03:51.230Z,55.80
2018-09-18T20:06:18.824Z,55.30
2018-09-18T20:08:46.228Z,55.20
2018-09-18T20:11:13.713Z,55.10
2018-09-18T20:13:41.225Z,55.20
2018-09-18T20:16:08.757Z,55.00
2018-09-18T20:18:37.142Z,54.90
2018-09-18T20:21:04.954Z,55.00
2018-09-18T20:23:32.483Z,54.80
2018-09-18T20:25:59.955Z,55.20
2018-09-18T20:28:27.513Z,55.10
2018-09-18T20:30:55.107Z,55.10
2018-09-18T20:33:22.640Z,55.30
2018-09-18T20:35:50.137Z,55.40
2018-09-18T20:38:17.647Z,55.30
2018-09-18T20:40:45.067Z,55.90
2018-09-18T20:43:12.654Z,55.50
2018-09-18T20:45:40.135Z,55.40
2018-09-18T20:48:07.669Z,55.60
2018-09-18T20:50:35.292Z,55.50
2018-09-18T20:53:02.755Z,55.60
2018-09-18T20:55:30.262Z,55.80
2018-09-18T20:57:57.778Z,55.80
2018-09-18T21:00:25.272Z,55.60
2018-09-18T21:02:52.704Z,55.70
2018-09-18T21:05:20.202Z,55.70
2018-09-18T21:07:47.668Z,55.80
2018-09-18T21:10:16.165Z,56.10
2018-09-18T21:12:43.633Z,56.20
2018-09-18T21:15:11.115Z,56.30
2018-09-18T21:17:38.677Z,56.30
2018-09-18T21:20:06.186Z,56.40
2018-09-18T21:22:33.642Z,56.70
2018-09-18T21:26:06.718Z,56.90
2018-09-18T21:28:34.222Z,57.10
2018-09-18T21:31:01.867Z,57.20
2018-09-18T21:33:29.788Z,57.30
2018-09-18T21:35:57.370Z,57.40
2018-09-18T21:38:24.978Z,57.50
2018-09-18T21:40:52.572Z,57.60
2018-09-18T21:43:20.344Z,57.60
2018-09-18T21:45:48.146Z,57.60
2018-09-18T21:48:15.677Z,57.70
2018-09-18T21:50:43.247Z,57.90
2018-09-18T21:53:12.427Z,58.00
2018-09-18T21:55:40.153Z,58.20
2018-09-18T21:58:07.812Z,58.40
2018-09-18T22:00:36.435Z,58.50
2018-09-18T22:03:04.163Z,58.80
2018-09-18T22:05:31.654Z,59.00
2018-09-18T22:08:00.259Z,59.30
2018-09-18T22:10:28.050Z,59.70
2018-09-18T22:12:55.977Z,59.90
2018-09-18T22:15:23.571Z,60.20
2018-09-18T22:17:51.079Z,60.40
2018-09-18T22:20:18.983Z,60.70
2018-09-18T22:22:46.779Z,61.00
2018-09-18T22:25:14.386Z,61.40
2018-09-18T22:27:41.954Z,61.50
2018-09-18T22:30:09.417Z,61.80
2018-09-18T22:32:37.024Z,62.50
2018-09-18T22:35:04.552Z,62.90
2018-09-18T22:37:32.093Z,63.00
2018-09-18T22:39:59.650Z,63.30
2018-09-18T22:42:29.176Z,63.60
2018-09-18T22:44:56.788Z,63.80
2018-09-18T22:47:25.409Z,64.30
2018-09-18T22:49:53.078Z,64.50
2018-09-18T22:52:20.986Z,64.70
2018-09-18T22:54:48.429Z,65.40
2018-09-18T22:57:16.015Z,65.40
2018-09-18T22:59:43.496Z,66.10
2018-09-18T23:02:11.071Z,66.60
2018-09-18T23:04:38.743Z,67.00
2018-09-18T23:07:06.292Z,67.50
2018-09-18T23:09:33.821Z,68.70
2018-09-18T23:12:01.371Z,68.00
2018-09-18T23:14:29.480Z,68.70
2018-09-18T23:16:58.011Z,68.50
2018-09-18T23:19:25.910Z,69.10
2018-09-18T23:21:53.407Z,69.90
2018-09-18T23:24:25.290Z,70.20
2018-09-18T23:26:54.791Z,70.60
2018-09-18T23:29:23.377Z,70.90
2018-09-18T23:31:50.899Z,71.60
2018-09-18T23:34:19.388Z,71.70
2018-09-18T23:36:47.026Z,71.80
2018-09-18T23:39:14.560Z,72.30
2018-09-18T23:41:42.161Z,72.60
2018-09-18T23:44:09.797Z,73.00
2018-09-18T23:46:37.365Z,73.30
2018-09-18T23:49:04.876Z,73.70
2018-09-18T23:51:32.408Z,73.80
2018-09-18T23:54:01.183Z,73.90
2018-09-18T23:56:29.638Z,74.20
2018-09-18T23:58:59.499Z,74.50
